createdAt,value
2022-09-02T00:02:05.384Z,99065.00
2022-09-02T00:04:32.575Z,99053.00
2022-09-02T00:07:06.306Z,99057.00
2022-09-02T00:09:40.218Z,99063.00
2022-09-02T00:12:14.241Z,99051.00
2022-09-02T00:14:41.204Z,99042.00
2022-09-02T00:17:14.204Z,99049.00
2022-09-02T00:19:41.380Z,99053.00
2022-09-02T00:22:15.357Z,99052.00
2022-09-02T00:24:42.235Z,99050.00
2022-09-02T00:27:16.235Z,99028.00
2022-09-02T00:29:50.205Z,99023.00
2022-09-02T00:32:17.144Z,99027.00
2022-09-02T00:34:50.232Z,99026.00
2022-09-02T00:37:17.130Z,99019.00
2022-09-02T00:39:50.241Z,99027.00
2022-09-02T00:42:17.137Z,99033.00
2022-09-02T00:44:51.198Z,99038.00
2022-09-02T00:47:18.469Z,99039.00
2022-09-02T00:49:58.222Z,99039.00
2022-09-02T00:52:35.150Z,99039.00
2022-09-02T00:55:14.229Z,99038.00
2022-09-02T00:57:45.658Z,99030.00
2022-09-02T01:00:25.232Z,99031.00
2022-09-02T01:03:01.160Z,99035.00
2022-09-02T01:05:40.559Z,99028.00
2022-09-02T01:08:17.239Z,99019.00
2022-09-02T01:10:51.424Z,99019.00
2022-09-02T01:13:27.352Z,99031.00
2022-09-02T01:16:13.297Z,99028.00
2022-09-02T01:18:47.310Z,99029.00
2022-09-02T01:21:14.353Z,99024.00
2022-09-02T01:23:48.289Z,99030.00
2022-09-02T01:26:15.276Z,99022.00
2022-09-02T01:28:48.287Z,99027.00
2022-09-02T01:31:15.323Z,99030.00
2022-09-02T01:33:42.334Z,99030.00
2022-09-02T01:36:19.262Z,99031.00
2022-09-02T01:38:46.196Z,99028.00
2022-09-02T01:41:13.102Z,99025.00
2022-09-02T01:43:46.262Z,99032.00
2022-09-02T01:46:13.306Z,99034.00
2022-09-02T01:48:46.277Z,99031.00
2022-09-02T01:51:17.294Z,99032.00
2022-09-02T01:53:51.291Z,99030.00
2022-09-02T01:56:18.299Z,99019.00
2022-09-02T01:58:45.216Z,99024.00
2022-09-02T02:01:18.382Z,99013.00
2022-09-02T02:03:45.390Z,99021.00
2022-09-02T02:06:21.357Z,99014.00
2022-09-02T02:08:48.411Z,99002.00
2022-09-02T02:11:30.345Z,99006.00
2022-09-02T02:13:57.257Z,99010.00
2022-09-02T02:16:24.299Z,99009.00
2022-09-02T02:18:58.309Z,99002.00
2022-09-02T02:21:32.274Z,99008.00
2022-09-02T02:24:06.330Z,99024.00
2022-09-02T02:26:39.302Z,99020.00
2022-09-02T02:29:12.338Z,99021.00
2022-09-02T02:31:46.346Z,99030.00
2022-09-02T02:34:20.285Z,99021.00
2022-09-02T02:36:47.223Z,99009.00
2022-09-02T02:39:14.191Z,99032.00
2022-09-02T02:41:48.348Z,99033.00
2022-09-02T02:44:22.362Z,99033.00
2022-09-02T02:46:49.398Z,99033.00
2022-09-02T02:49:23.372Z,99038.00
2022-09-02T02:51:50.319Z,99031.00
2022-09-02T02:54:24.302Z,99026.00
2022-09-02T02:57:03.167Z,99028.00
2022-09-02T02:59:37.322Z,99024.00
2022-09-02T03:02:05.899Z,99032.00
2022-09-02T03:04:32.905Z,99030.00
2022-09-02T03:07:06.357Z,99025.00
2022-09-02T03:09:40.343Z,99021.00
2022-09-02T03:12:07.695Z,99027.00
2022-09-02T03:14:41.372Z,99020.00
2022-09-02T03:17:14.375Z,99032.00
2022-09-02T03:19:41.389Z,99024.00
2022-09-02T03:22:08.419Z,99004.00
2022-09-02T03:24:41.397Z,99011.00
2022-09-02T03:27:14.357Z,99009.00
2022-09-02T03:29:41.373Z,99010.00
2022-09-02T03:32:14.860Z,99011.00
2022-09-02T03:34:42.727Z,99007.00
2022-09-02T03:37:16.345Z,99013.00
2022-09-02T03:39:43.316Z,99032.00
2022-09-02T03:42:17.461Z,99033.00
2022-09-02T03:44:53.384Z,99021.00
2022-09-02T03:47:20.712Z,99019.00
2022-09-02T03:49:55.495Z,99020.00
2022-09-02T03:52:22.467Z,99020.00
2022-09-02T03:54:49.381Z,99022.00
2022-09-02T03:57:22.355Z,99025.00
2022-09-02T03:59:49.357Z,99020.00
2022-09-02T04:02:22.447Z,99019.00
2022-09-02T04:04:49.562Z,99022.00
2022-09-02T04:07:23.364Z,99002.00
2022-09-02T04:09:50.342Z,98999.00
2022-09-02T04:12:23.409Z,99006.00
2022-09-02T04:14:52.909Z,99007.00
2022-09-02T04:17:31.399Z,99025.00
2022-09-02T04:20:04.387Z,99032.00
2022-09-02T04:22:32.012Z,99012.00
2022-09-02T04:25:05.372Z,99017.00
2022-09-02T04:27:38.393Z,99018.00
2022-09-02T04:30:06.235Z,99018.00
2022-09-02T04:32:41.005Z,99029.00
2022-09-02T04:35:08.245Z,99019.00
2022-09-02T04:37:41.398Z,99010.00
2022-09-02T04:40:09.173Z,99017.00
2022-09-02T04:42:42.397Z,99010.00
2022-09-02T04:45:10.027Z,99022.00
2022-09-02T04:47:37.022Z,99031.00
2022-09-02T04:50:11.395Z,99029.00
2022-09-02T04:52:38.297Z,99025.00
2022-09-02T04:55:12.406Z,99033.00
2022-09-02T04:57:39.321Z,99031.00
2022-09-02T05:00:07.184Z,99047.00
2022-09-02T05:02:40.480Z,99035.00
2022-09-02T05:05:08.260Z,99027.00
2022-09-02T05:07:44.405Z,99025.00
2022-09-02T05:10:11.303Z,99047.00
2022-09-02T05:12:44.389Z,99031.00
2022-09-02T05:15:11.687Z,99043.00
2022-09-02T05:17:38.617Z,99047.00
2022-09-02T05:20:13.464Z,99035.00
2022-09-02T05:22:40.352Z,99034.00
2022-09-02T05:25:14.398Z,99055.00
2022-09-02T05:27:47.405Z,99041.00
2022-09-02T05:30:14.345Z,99041.00
2022-09-02T05:32:47.428Z,99029.00
2022-09-02T05:35:14.347Z,99044.00
2022-09-02T05:37:41.368Z,99048.00
2022-09-02T05:40:15.468Z,99038.00
2022-09-02T05:42:49.405Z,99050.00
2022-09-02T05:45:16.522Z,99036.00
2022-09-02T05:47:50.440Z,99065.00
2022-09-02T05:50:17.440Z,99041.00
2022-09-02T05:52:51.457Z,99060.00
2022-09-02T05:55:25.437Z,99058.00
2022-09-02T05:57:52.382Z,99058.00
2022-09-02T06:00:19.346Z,99072.00
2022-09-02T06:02:52.563Z,99075.00
2022-09-02T06:05:19.542Z,99077.00
2022-09-02T06:07:46.493Z,99077.00
2022-09-02T06:10:19.589Z,99072.00
2022-09-02T06:12:46.622Z,99064.00
2022-09-02T06:15:13.592Z,99069.00
2022-09-02T06:17:47.447Z,99088.00
2022-09-02T06:20:14.525Z,99070.00
2022-09-02T06:22:47.429Z,99079.00
2022-09-02T06:25:14.453Z,99054.00
2022-09-02T06:27:41.352Z,99079.00
2022-09-02T06:30:15.453Z,99095.00
2022-09-02T06:32:42.327Z,99075.00
2022-09-02T06:35:23.474Z,99101.00
2022-09-02T06:37:56.486Z,99095.00
2022-09-02T06:40:29.530Z,99077.00
2022-09-02T06:42:56.610Z,99097.00
2022-09-02T06:45:23.750Z,99089.00
2022-09-02T06:47:58.454Z,99091.00
2022-09-02T06:50:31.474Z,99084.00
2022-09-02T06:53:04.515Z,99082.00
2022-09-02T06:55:31.492Z,99080.00
2022-09-02T06:57:58.364Z,99078.00
2022-09-02T07:00:31.457Z,99084.00
2022-09-02T07:02:59.178Z,99072.00
2022-09-02T07:05:32.488Z,99076.00
2022-09-02T07:07:59.436Z,99076.00
2022-09-02T07:10:32.507Z,99047.00
2022-09-02T07:12:59.505Z,99040.00
2022-09-02T07:15:32.527Z,99031.00
2022-09-02T07:17:59.512Z,99033.00
2022-09-02T07:20:26.737Z,99034.00
2022-09-02T07:23:00.543Z,99029.00
2022-09-02T07:25:27.479Z,99034.00
2022-09-02T07:28:00.492Z,99053.00
2022-09-02T07:30:27.514Z,99061.00
2022-09-02T07:32:54.462Z,99092.00
2022-09-02T07:35:28.505Z,99102.00
2022-09-02T07:37:55.457Z,99111.00
2022-09-02T07:40:28.647Z,99111.00
2022-09-02T07:45:22.657Z,99115.00
2022-09-02T07:47:56.529Z,99109.00
2022-09-02T07:50:24.038Z,99126.00
2022-09-02T07:52:57.553Z,99121.00
2022-09-02T07:55:24.761Z,99122.00
2022-09-02T07:57:58.543Z,99113.00
2022-09-02T08:00:32.541Z,99124.00
2022-09-02T08:03:00.055Z,99112.00
2022-09-02T08:05:34.519Z,99118.00
2022-09-02T08:08:01.881Z,99114.00
2022-09-02T08:10:35.548Z,99115.00
2022-09-02T08:13:08.547Z,99127.00
2022-09-02T08:15:36.445Z,99113.00
2022-09-02T08:18:12.523Z,99132.00
2022-09-02T08:21:02.540Z,99127.00
2022-09-02T08:23:37.656Z,99128.00
2022-09-02T08:26:11.537Z,99130.00
2022-09-02T08:28:38.485Z,99111.00
2022-09-02T08:31:13.563Z,99106.00
2022-09-02T08:33:40.467Z,99116.00
2022-09-02T08:36:15.575Z,99115.00
2022-09-02T08:38:43.083Z,99114.00
2022-09-02T08:41:33.544Z,99115.00
2022-09-02T08:44:07.581Z,99107.00
2022-09-02T08:46:40.568Z,99111.00
2022-09-02T08:49:10.795Z,99093.00
2022-09-02T08:52:07.578Z,99071.00
2022-09-02T08:54:42.092Z,99093.00
2022-09-02T08:57:15.609Z,99098.00
2022-09-02T08:59:42.537Z,99102.00
2022-09-02T09:02:37.641Z,99103.00
2022-09-02T09:05:33.561Z,99106.00
2022-09-02T09:08:09.664Z,99077.00
2022-09-02T09:10:53.583Z,99103.00
2022-09-02T09:13:45.010Z,99077.00
2022-09-02T09:16:36.656Z,99073.00
2022-09-02T09:19:47.899Z,99071.00
2022-09-02T09:22:24.597Z,99063.00
2022-09-02T09:24:57.570Z,99067.00
2022-09-02T09:27:24.545Z,99059.00
2022-09-02T09:29:52.324Z,99062.00
2022-09-02T09:32:40.602Z,99061.00
2022-09-02T09:35:13.951Z,99044.00
2022-09-02T09:37:49.602Z,99044.00
2022-09-02T09:40:19.501Z,99055.00
2022-09-02T09:42:49.895Z,99053.00
2022-09-02T09:45:28.608Z,99040.00
2022-09-02T09:48:23.653Z,99060.00
2022-09-02T09:51:03.589Z,99067.00
2022-09-02T09:53:32.823Z,99056.00
2022-09-02T09:56:10.635Z,99047.00
2022-09-02T09:58:40.492Z,99071.00
2022-09-02T10:01:39.624Z,99078.00
2022-09-02T10:04:39.388Z,99070.00
2022-09-02T10:07:03.644Z,99074.00
2022-09-02T10:09:34.232Z,99064.00
2022-09-02T10:12:37.629Z,99072.00
2022-09-02T10:15:04.884Z,99071.00
2022-09-02T10:17:44.619Z,99063.00
2022-09-02T10:20:29.436Z,99050.00
2022-09-02T10:23:17.617Z,99059.00
2022-09-02T10:26:15.165Z,99065.00
2022-09-02T10:28:54.629Z,99052.00
2022-09-02T10:31:36.505Z,99064.00
2022-09-02T10:34:39.638Z,99065.00
2022-09-02T10:37:18.180Z,99062.00
2022-09-02T10:40:21.697Z,99056.00
2022-09-02T10:43:05.239Z,99050.00
2022-09-02T10:45:44.732Z,99049.00
2022-09-02T10:48:37.480Z,99050.00
2022-09-02T10:51:49.691Z,99035.00
2022-09-02T10:54:51.639Z,99037.00
2022-09-02T10:57:30.822Z,99026.00
2022-09-02T11:00:19.667Z,99026.00
2022-09-02T11:03:27.701Z,99031.00
2022-09-02T11:06:45.714Z,99020.00
2022-09-02T11:09:51.662Z,99014.00
2022-09-02T11:12:28.319Z,98998.00
2022-09-02T11:15:22.699Z,98993.00
2022-09-02T11:17:58.562Z,98998.00
2022-09-02T11:20:57.683Z,98988.00
2022-09-02T11:23:55.695Z,98981.00
2022-09-02T11:26:28.579Z,98974.00
2022-09-02T11:29:17.687Z,98961.00
2022-09-02T11:32:13.522Z,98970.00
2022-09-02T11:34:54.673Z,98971.00
2022-09-02T11:37:44.670Z,98968.00
2022-09-02T11:40:34.696Z,98954.00
2022-09-02T11:43:27.534Z,98961.00
2022-09-02T11:46:51.760Z,98968.00
2022-09-02T11:50:03.534Z,98957.00
2022-09-02T11:52:58.690Z,98960.00
2022-09-02T11:55:35.362Z,98963.00
2022-09-02T11:58:08.742Z,98951.00
2022-09-02T12:00:57.509Z,98953.00
2022-09-02T12:03:46.845Z,98958.00
2022-09-02T12:06:25.802Z,98965.00
2022-09-02T12:08:52.903Z,98972.00
2022-09-02T12:11:54.697Z,98973.00
2022-09-02T12:14:27.729Z,98973.00
2022-09-02T12:17:06.402Z,98968.00
2022-09-02T12:19:45.699Z,98966.00
2022-09-02T12:22:24.717Z,98972.00
2022-09-02T12:25:01.045Z,98967.00
2022-09-02T12:27:41.741Z,98963.00
2022-09-02T12:30:11.781Z,98958.00
2022-09-02T12:32:54.731Z,98962.00
2022-09-02T12:35:41.098Z,98960.00
2022-09-02T12:38:17.749Z,98956.00
2022-09-02T12:41:08.174Z,98954.00
2022-09-02T12:44:03.760Z,98947.00
2022-09-02T12:46:42.897Z,98948.00
2022-09-02T12:49:43.744Z,98937.00
2022-09-02T12:52:35.827Z,98929.00
2022-09-02T12:55:16.747Z,98925.00
2022-09-02T12:57:52.737Z,98907.00
2022-09-02T13:00:43.738Z,98916.00
2022-09-02T13:03:23.572Z,98913.00
2022-09-02T13:06:31.771Z,98901.00
2022-09-02T13:09:40.305Z,98892.00
2022-09-02T13:12:55.774Z,98890.00
2022-09-02T13:16:18.341Z,98893.00
2022-09-02T13:19:13.753Z,98893.00
2022-09-02T13:21:55.564Z,98894.00
2022-09-02T13:25:11.055Z,98882.00
2022-09-02T13:28:08.764Z,98868.00
2022-09-02T13:31:17.981Z,98875.00
2022-09-02T13:33:51.761Z,98870.00
2022-09-02T13:36:26.370Z,98868.00
2022-09-02T13:38:59.786Z,98870.00
2022-09-02T13:41:39.785Z,98856.00
2022-09-02T13:44:26.789Z,98858.00
2022-09-02T13:47:20.708Z,98849.00
2022-09-02T13:49:49.787Z,98851.00
2022-09-02T13:53:12.082Z,98856.00
2022-09-02T13:55:15.521Z,98858.00
2022-09-02T13:58:04.777Z,98854.00
2022-09-02T14:00:44.872Z,98854.00
2022-09-02T14:03:19.793Z,98853.00
2022-09-02T14:05:58.796Z,98852.00
2022-09-02T14:08:32.810Z,98851.00
2022-09-02T14:11:00.697Z,98847.00
2022-09-02T14:13:35.917Z,98842.00
2022-09-02T14:16:26.557Z,98853.00
2022-09-02T14:19:23.792Z,98855.00
2022-09-02T14:21:57.770Z,98846.00
2022-09-02T14:24:45.792Z,98843.00
2022-09-02T14:27:25.842Z,98844.00
2022-09-02T14:29:57.357Z,98830.00
2022-09-02T14:32:36.794Z,98836.00
2022-09-02T14:35:30.207Z,98826.00
2022-09-02T14:38:03.826Z,98826.00
2022-09-02T14:40:40.690Z,98823.00
2022-09-02T14:43:20.836Z,98812.00
2022-09-02T14:45:55.917Z,98812.00
2022-09-02T14:48:24.655Z,98806.00
2022-09-02T14:51:07.850Z,98815.00
2022-09-02T14:53:41.850Z,98806.00
2022-09-02T14:56:08.759Z,98821.00
2022-09-02T14:58:35.631Z,98822.00
2022-09-02T15:01:10.949Z,98818.00
2022-09-02T15:03:44.854Z,98826.00
2022-09-02T15:06:15.069Z,98825.00
2022-09-02T15:08:42.306Z,98817.00
2022-09-02T15:11:15.902Z,98833.00
2022-09-02T15:13:42.885Z,98830.00
2022-09-02T15:16:15.881Z,98836.00
2022-09-02T15:18:42.820Z,98833.00
2022-09-02T15:21:15.887Z,98838.00
2022-09-02T15:23:42.812Z,98844.00
2022-09-02T15:26:15.882Z,98840.00
2022-09-02T15:28:42.857Z,98845.00
2022-09-02T15:31:09.918Z,98860.00
2022-09-02T15:33:43.922Z,98846.00
2022-09-02T15:36:20.873Z,98856.00
2022-09-02T15:38:53.884Z,98857.00
2022-09-02T15:41:29.873Z,98854.00
2022-09-02T15:43:56.929Z,98850.00
2022-09-02T15:46:29.483Z,98843.00
2022-09-02T15:49:03.116Z,98851.00
2022-09-02T15:51:30.193Z,98854.00
2022-09-02T15:54:06.908Z,98848.00
2022-09-02T15:56:41.867Z,98867.00
2022-09-02T15:59:23.914Z,98873.00
2022-09-02T16:02:01.972Z,98869.00
2022-09-02T16:04:28.958Z,98862.00
2022-09-02T16:07:01.924Z,98871.00
2022-09-02T16:09:29.174Z,98872.00
2022-09-02T16:12:02.934Z,98861.00
2022-09-02T16:14:29.945Z,98868.00
2022-09-02T16:17:02.962Z,98865.00
2022-09-02T16:19:30.528Z,98871.00
2022-09-02T16:21:57.729Z,98879.00
2022-09-02T16:24:30.944Z,98882.00
2022-09-02T16:27:03.904Z,98883.00
2022-09-02T16:29:30.860Z,98876.00
2022-09-02T16:34:50.775Z,98892.00
2022-09-02T16:37:23.917Z,98896.00
2022-09-02T16:39:50.945Z,98906.00
2022-09-02T16:42:25.067Z,98906.00
2022-09-02T16:44:52.089Z,98891.00
2022-09-02T16:47:25.908Z,98877.00
2022-09-02T16:49:53.741Z,98887.00
2022-09-02T16:52:26.942Z,98868.00
2022-09-02T16:54:53.828Z,98877.00
2022-09-02T16:57:20.740Z,98875.00
2022-09-02T16:59:53.950Z,98886.00
2022-09-02T17:02:20.865Z,98873.00
2022-09-02T17:04:47.790Z,98875.00
2022-09-02T17:07:20.950Z,98864.00
2022-09-02T17:09:47.813Z,98851.00
2022-09-02T17:12:20.960Z,98852.00
2022-09-02T17:14:53.948Z,98848.00
2022-09-02T17:17:20.804Z,98823.00
2022-09-02T17:19:47.705Z,98826.00
2022-09-02T17:22:20.950Z,98811.00
2022-09-02T17:24:51.708Z,98800.00
2022-09-02T17:27:26.931Z,98794.00
2022-09-02T17:29:59.949Z,98795.00
2022-09-02T17:32:26.830Z,98794.00
2022-09-02T17:35:01.097Z,98784.00
2022-09-02T17:37:28.245Z,98781.00
2022-09-02T17:39:55.207Z,98785.00
2022-09-02T17:42:29.014Z,98781.00
2022-09-02T17:45:01.975Z,98799.00
2022-09-02T17:47:28.894Z,98810.00
2022-09-02T17:50:07.064Z,98812.00
2022-09-02T17:52:39.977Z,98806.00
2022-09-02T17:55:07.217Z,98788.00
2022-09-02T17:57:56.956Z,98791.00
2022-09-02T18:00:23.838Z,98787.00
2022-09-02T18:03:31.031Z,98804.00
2022-09-02T18:06:23.579Z,98802.00
2022-09-02T18:09:11.115Z,98806.00
2022-09-02T18:11:40.700Z,98823.00
2022-09-02T18:14:48.498Z,98826.00
2022-09-02T18:17:30.118Z,98813.00
2022-09-02T18:20:44.028Z,98819.00
2022-09-02T18:23:40.989Z,98824.00
2022-09-02T18:26:37.800Z,98816.00
2022-09-02T18:29:56.091Z,98813.00
2022-09-02T18:32:34.885Z,98808.00
2022-09-02T18:35:30.003Z,98817.00
2022-09-02T18:38:36.999Z,98835.00
2022-09-02T18:41:45.018Z,98844.00
2022-09-02T18:44:41.244Z,98833.00
2022-09-02T18:47:20.001Z,98828.00
2022-09-02T18:49:46.987Z,98835.00
2022-09-02T18:52:20.023Z,98837.00
2022-09-02T18:55:08.005Z,98823.00
2022-09-02T18:57:48.011Z,98846.00
2022-09-02T19:00:15.200Z,98834.00
2022-09-02T19:03:04.028Z,98841.00
2022-09-02T19:05:33.223Z,98835.00
2022-09-02T19:08:16.016Z,98839.00
2022-09-02T19:10:42.883Z,98852.00
2022-09-02T19:13:16.050Z,98865.00
2022-09-02T19:15:42.948Z,98865.00
2022-09-02T19:18:10.775Z,98868.00
2022-09-02T19:20:44.068Z,98857.00
2022-09-02T19:23:11.523Z,98876.00
2022-09-02T19:25:38.459Z,98876.00
2022-09-02T19:28:12.055Z,98876.00
2022-09-02T19:30:39.621Z,98874.00
2022-09-02T19:33:15.075Z,98868.00
2022-09-02T19:35:53.063Z,98868.00
2022-09-02T19:38:20.025Z,98877.00
2022-09-02T19:40:53.055Z,98877.00
2022-09-02T19:43:26.053Z,98864.00
2022-09-02T19:45:59.242Z,98877.00
2022-09-02T19:48:26.313Z,98850.00
2022-09-02T19:50:53.283Z,98866.00
2022-09-02T19:53:31.084Z,98872.00
2022-09-02T19:55:59.443Z,98862.00
2022-09-02T19:58:33.078Z,98868.00
2022-09-02T20:01:00.113Z,98862.00
2022-09-02T20:03:27.408Z,98874.00
2022-09-02T20:06:01.120Z,98864.00
2022-09-02T20:08:29.488Z,98887.00
2022-09-02T20:11:06.070Z,98876.00
2022-09-02T20:13:37.288Z,98881.00
2022-09-02T20:16:21.129Z,98882.00
2022-09-02T20:18:49.597Z,98880.00
2022-09-02T20:21:38.135Z,98875.00
2022-09-02T20:24:07.563Z,98885.00
2022-09-02T20:27:27.097Z,98897.00
2022-09-02T20:30:12.106Z,98882.00
2022-09-02T20:33:00.615Z,98902.00
2022-09-02T20:36:02.205Z,98910.00
2022-09-02T20:38:49.909Z,98914.00
2022-09-02T20:41:55.143Z,98901.00
2022-09-02T20:44:57.153Z,98902.00
2022-09-02T20:47:42.788Z,98909.00
2022-09-02T20:50:39.105Z,98894.00
2022-09-02T20:53:16.212Z,98899.00
2022-09-02T20:56:24.077Z,98903.00
2022-09-02T20:59:16.128Z,98892.00
2022-09-02T21:01:43.061Z,98876.00
2022-09-02T21:04:31.110Z,98885.00
2022-09-02T21:07:17.135Z,98889.00
2022-09-02T21:10:08.659Z,98865.00
2022-09-02T21:13:05.095Z,98867.00
2022-09-02T21:16:01.172Z,98877.00
2022-09-02T21:18:44.044Z,98879.00
2022-09-02T21:21:45.103Z,98873.00
2022-09-02T21:24:44.164Z,98873.00
2022-09-02T21:27:39.457Z,98870.00
2022-09-02T21:30:15.126Z,98870.00
2022-09-02T21:32:54.377Z,98872.00
2022-09-02T21:35:47.342Z,98880.00
2022-09-02T21:38:19.347Z,98886.00
2022-09-02T21:41:31.165Z,98894.00
2022-09-02T21:44:26.177Z,98891.00
2022-09-02T21:47:11.190Z,98895.00
2022-09-02T21:50:25.175Z,98903.00
2022-09-02T21:53:08.130Z,98904.00
2022-09-02T21:56:19.179Z,98906.00
2022-09-02T21:59:22.838Z,98912.00
2022-09-02T22:02:08.210Z,98906.00
2022-09-02T22:05:32.165Z,98911.00
2022-09-02T22:08:14.284Z,98923.00
2022-09-02T22:11:18.162Z,98916.00
2022-09-02T22:13:51.163Z,98926.00
2022-09-02T22:16:44.220Z,98920.00
2022-09-02T22:19:18.192Z,98926.00
2022-09-02T22:21:53.700Z,98927.00
2022-09-02T22:24:30.178Z,98921.00
2022-09-02T22:27:24.640Z,98922.00
2022-09-02T22:30:30.153Z,98935.00
2022-09-02T22:33:18.309Z,98943.00
2022-09-02T22:36:08.577Z,98932.00
2022-09-02T22:38:52.198Z,98954.00
2022-09-02T22:41:30.901Z,98962.00
2022-09-02T22:44:05.168Z,98958.00
2022-09-02T22:46:58.286Z,98964.00
2022-09-02T22:49:32.245Z,98959.00
2022-09-02T22:52:35.459Z,98971.00
2022-09-02T22:55:10.187Z,98966.00
2022-09-02T22:58:05.233Z,98957.00
2022-09-02T23:00:43.776Z,98967.00
2022-09-02T23:03:37.238Z,98965.00
2022-09-02T23:06:30.230Z,98962.00
2022-09-02T23:08:59.100Z,98965.00
2022-09-02T23:12:01.205Z,98950.00
2022-09-02T23:14:57.217Z,98942.00
2022-09-02T23:17:54.697Z,98952.00
2022-09-02T23:20:58.236Z,98937.00
2022-09-02T23:24:09.251Z,98936.00
2022-09-02T23:26:49.829Z,98932.00
2022-09-02T23:29:30.270Z,98930.00
2022-09-02T23:32:47.841Z,98923.00
2022-09-02T23:35:26.200Z,98917.00
2022-09-02T23:38:09.225Z,98904.00
2022-09-02T23:40:55.387Z,98905.00
2022-09-02T23:43:29.240Z,98896.00
2022-09-02T23:45:56.260Z,98890.00
2022-09-02T23:49:05.213Z,98890.00
2022-09-02T23:52:12.287Z,98896.00
2022-09-02T23:55:07.254Z,98889.00
2022-09-02T23:57:55.134Z,98894.00
